Time;durP1;ratioP1;P1;durP2;ratioP2;P2;SDS_P1;SDS_P2;PMS_P1;PMS_P2;Temp;Humidity;BMP_temperature;BMP_pressure;BME280_temperature;BME280_humidity;BME280_pressure;Samples;Min_cycle;Max_cycle;Signal;HPM_P1;HPM_P2
2022/01/12 00:00:39;;;;;;;112.20;32.83;;;;;;;;;;10403778;28;20624;-65
2022/01/12 00:05:40;;;;;;;96.95;30.83;;;;;;;;;;10407508;28;20195;-65
2022/01/12 00:10:43;;;;;;;107.63;30.40;;;;;;;;;;10398650;28;20198;-65
2022/01/12 00:15:44;;;;;;;98.32;30.10;;;;;;;;;;10417426;28;20223;-65
2022/01/12 00:20:45;;;;;;;102.40;31.73;;;;;;;;;;10420186;28;20285;-65
2022/01/12 00:26:08;;;;;;;98.88;30.65;;;;;;;;;;10410673;28;20206;-65
2022/01/12 00:36:30;;;;;;;104.78;31.30;;;;;;;;;;10430702;28;20289;-64
2022/01/12 00:41:31;;;;;;;97.47;31.65;;;;;;;;;;10415713;28;20749;-64
2022/01/12 00:46:32;;;;;;;88.57;27.95;;;;;;;;;;10396917;28;20191;-66
2022/01/12 00:51:37;;;;;;;98.10;29.08;;;;;;;;;;10391995;28;20199;-65
2022/01/12 00:56:38;;;;;;;96.70;29.48;;;;;;;;;;10399087;28;20695;-65
2022/01/12 01:01:39;;;;;;;95.40;29.40;;;;;;;;;;10410565;28;20225;-65
2022/01/12 01:06:42;;;;;;;91.68;28.55;;;;;;;;;;10439987;28;20244;-65
2022/01/12 01:11:43;;;;;;;80.93;28.58;;;;;;;;;;10456562;28;20236;-65
2022/01/12 01:16:52;;;;;;;88.43;27.27;;;;;;;;;;10459925;28;20214;-65
2022/01/12 01:27:15;;;;;;;79.63;27.27;;;;;;;;;;10455576;28;20277;-64
2022/01/12 01:32:17;;;;;;;81.53;26.63;;;;;;;;;;10440384;28;20222;-65
2022/01/12 01:37:19;;;;;;;82.40;27.90;;;;;;;;;;10437373;28;20214;-65
2022/01/12 01:42:29;;;;;;;78.03;26.17;;;;;;;;;;10444865;28;20191;-65
2022/01/12 01:58:10;;;;;;;71.60;24.75;;;;;;;;;;10407908;28;20218;-65
2022/01/12 02:03:13;;;;;;;62.88;23.73;;;;;;;;;;10388461;28;20215;-65
2022/01/12 02:08:19;;;;;;;61.17;22.77;;;;;;;;;;10402239;28;20989;-65
2022/01/12 02:13:38;;;;;;;63.20;21.83;;;;;;;;;;10402887;28;20698;-64
2022/01/12 02:19:14;;;;;;;54.03;20.75;;;;;;;;;;10389996;28;20229;-65
2022/01/12 02:40:21;;;;;;;51.28;21.58;;;;;;;;;;10410896;28;20199;-65
2022/01/12 02:50:45;;;;;;;50.28;19.75;;;;;;;;;;10397581;28;20253;-64
2022/01/12 02:55:47;;;;;;;43.30;18.58;;;;;;;;;;10390441;28;20733;-65
2022/01/12 03:06:03;;;;;;;48.53;18.65;;;;;;;;;;10397002;28;20207;-65
2022/01/12 03:11:05;;;;;;;52.38;20.33;;;;;;;;;;10409252;28;20621;-65
2022/01/12 03:16:22;;;;;;;47.13;17.90;;;;;;;;;;10379185;28;20389;-65
2022/01/12 03:21:25;;;;;;;51.22;18.98;;;;;;;;;;10398852;28;20290;-65
2022/01/12 03:26:28;;;;;;;47.50;19.30;;;;;;;;;;10395661;28;20203;-65
2022/01/12 03:31:33;;;;;;;51.97;21.95;;;;;;;;;;10390962;28;20218;-65
2022/01/12 03:42:14;;;;;;;51.28;20.05;;;;;;;;;;10283232;28;22123;-65
2022/01/12 03:47:17;;;;;;;50.65;20.48;;;;;;;;;;10395520;28;20271;-65
2022/01/12 03:52:18;;;;;;;46.55;19.52;;;;;;;;;;10448837;28;20738;-65
2022/01/12 03:57:20;;;;;;;54.42;21.42;;;;;;;;;;10447175;28;20237;-64
2022/01/12 04:02:23;;;;;;;48.30;18.77;;;;;;;;;;10432645;28;20223;-65
2022/01/12 04:12:44;;;;;;;47.03;18.60;;;;;;;;;;10427992;28;20708;-64
2022/01/12 04:17:45;;;;;;;55.42;19.65;;;;;;;;;;10460591;28;20190;-64
2022/01/12 04:28:06;;;;;;;48.67;18.85;;;;;;;;;;10458650;28;20225;-64
2022/01/12 04:33:07;;;;;;;46.15;17.75;;;;;;;;;;10452226;28;20248;-64
2022/01/12 04:38:08;;;;;;;40.08;15.98;;;;;;;;;;10445071;28;20195;-64
2022/01/12 04:43:10;;;;;;;38.20;16.13;;;;;;;;;;10457597;28;20182;-64
2022/01/12 04:53:19;;;;;;;42.05;15.32;;;;;;;;;;10454365;28;20910;-64
2022/01/12 04:58:20;;;;;;;39.88;17.17;;;;;;;;;;10450017;28;20195;-63
2022/01/12 05:13:43;;;;;;;37.33;15.45;;;;;;;;;;10426559;28;20205;-65
2022/01/12 05:18:45;;;;;;;36.05;14.77;;;;;;;;;;10448768;28;20190;-64
2022/01/12 05:23:46;;;;;;;35.15;14.48;;;;;;;;;;10452959;28;20259;-65
2022/01/12 05:28:47;;;;;;;33.53;15.13;;;;;;;;;;10434546;28;20194;-64
2022/01/12 05:33:49;;;;;;;37.53;15.15;;;;;;;;;;10433037;28;20694;-64
2022/01/12 05:38:50;;;;;;;33.00;14.63;;;;;;;;;;10441608;28;20628;-65
2022/01/12 05:43:52;;;;;;;35.70;15.57;;;;;;;;;;10441535;28;20325;-65
2022/01/12 05:54:18;;;;;;;29.90;14.45;;;;;;;;;;10398430;28;20219;-65
2022/01/12 05:59:19;;;;;;;34.83;14.50;;;;;;;;;;10410517;28;20577;-65
2022/01/12 06:04:21;;;;;;;33.25;14.02;;;;;;;;;;10390714;28;20262;-65
2022/01/12 06:09:23;;;;;;;36.05;15.23;;;;;;;;;;10396503;28;20187;-64
2022/01/12 06:14:24;;;;;;;30.90;14.43;;;;;;;;;;10400803;28;20293;-64
2022/01/12 06:19:25;;;;;;;31.95;14.45;;;;;;;;;;10401335;28;20192;-65
2022/01/12 06:24:38;;;;;;;30.30;14.25;;;;;;;;;;10392871;28;20199;-64
2022/01/12 06:34:41;;;;;;;27.60;13.90;;;;;;;;;;10410191;28;20235;-65
2022/01/12 06:39:42;;;;;;;28.88;13.93;;;;;;;;;;10407929;28;20196;-65
2022/01/12 06:44:43;;;;;;;27.83;14.77;;;;;;;;;;10408662;28;20570;-65
2022/01/12 06:49:44;;;;;;;27.98;14.43;;;;;;;;;;10406644;28;20264;-65
2022/01/12 06:54:46;;;;;;;28.27;14.38;;;;;;;;;;10406601;28;20225;-66
2022/01/12 06:59:47;;;;;;;23.83;12.60;;;;;;;;;;10394837;28;20187;-65
2022/01/12 07:04:51;;;;;;;22.38;12.40;;;;;;;;;;10405909;28;20226;-63
2022/01/12 07:09:56;;;;;;;21.88;12.02;;;;;;;;;;10409234;28;20203;-64
2022/01/12 07:14:59;;;;;;;23.27;13.07;;;;;;;;;;10394132;28;20218;-64
2022/01/12 07:20:00;;;;;;;21.27;12.20;;;;;;;;;;10389221;28;20626;-64
2022/01/12 07:25:02;;;;;;;21.80;11.65;;;;;;;;;;10405033;28;20194;-65
2022/01/12 07:30:04;;;;;;;22.65;12.48;;;;;;;;;;10410256;28;20196;-65
2022/01/12 07:35:05;;;;;;;26.85;13.00;;;;;;;;;;10411233;28;20740;-65
2022/01/12 07:40:07;;;;;;;20.90;12.73;;;;;;;;;;10408595;28;20210;-64
2022/01/12 07:45:09;;;;;;;23.10;12.45;;;;;;;;;;10412843;28;20199;-64
2022/01/12 07:50:10;;;;;;;21.48;12.80;;;;;;;;;;10411106;28;20732;-65
2022/01/12 07:55:11;;;;;;;17.63;10.98;;;;;;;;;;10404806;28;20203;-65
2022/01/12 08:00:13;;;;;;;18.75;10.68;;;;;;;;;;10415106;28;20191;-65
2022/01/12 08:05:14;;;;;;;16.45;10.48;;;;;;;;;;10414292;28;20886;-65
2022/01/12 08:10:15;;;;;;;16.20;10.25;;;;;;;;;;10413049;28;20187;-64
2022/01/12 08:15:17;;;;;;;14.88;10.52;;;;;;;;;;10413080;28;20219;-65
2022/01/12 08:20:22;;;;;;;14.30;9.60;;;;;;;;;;10409323;28;20223;-64
2022/01/12 08:25:23;;;;;;;13.15;9.05;;;;;;;;;;10414182;28;20229;-64
2022/01/12 08:30:29;;;;;;;15.90;9.32;;;;;;;;;;10417770;28;20203;-64
2022/01/12 08:35:30;;;;;;;14.63;9.15;;;;;;;;;;10401355;28;21030;-64
2022/01/12 08:40:31;;;;;;;13.52;8.70;;;;;;;;;;10416287;28;20195;-64
2022/01/12 08:45:32;;;;;;;15.40;9.50;;;;;;;;;;10414263;28;20332;-65
2022/01/12 08:50:33;;;;;;;12.57;8.70;;;;;;;;;;10412084;28;20229;-65
2022/01/12 08:55:34;;;;;;;11.85;8.10;;;;;;;;;;10409267;28;20210;-65
2022/01/12 09:00:36;;;;;;;12.15;8.55;;;;;;;;;;10411066;28;20235;-64
2022/01/12 09:05:37;;;;;;;15.65;8.13;;;;;;;;;;10409827;28;20195;-65
2022/01/12 09:10:38;;;;;;;13.43;8.38;;;;;;;;;;10402975;28;21008;-65
2022/01/12 09:15:39;;;;;;;14.80;8.50;;;;;;;;;;10412551;28;20210;-64
2022/01/12 09:20:40;;;;;;;11.95;7.57;;;;;;;;;;10415149;28;20198;-65
2022/01/12 09:25:41;;;;;;;8.85;7.00;;;;;;;;;;10413108;28;20191;-64
2022/01/12 09:30:42;;;;;;;11.07;7.38;;;;;;;;;;10412466;28;20217;-64
2022/01/12 09:35:46;;;;;;;8.73;7.35;;;;;;;;;;10408406;28;21046;-65
2022/01/12 09:40:47;;;;;;;12.32;6.43;;;;;;;;;;10414242;28;20187;-64
2022/01/12 09:45:50;;;;;;;9.88;7.40;;;;;;;;;;10406894;28;20701;-64
2022/01/12 09:50:58;;;;;;;16.05;9.10;;;;;;;;;;10409645;28;20214;-64
2022/01/12 09:55:59;;;;;;;17.23;10.13;;;;;;;;;;10411608;28;20249;-65
2022/01/12 10:01:01;;;;;;;17.90;11.40;;;;;;;;;;10391041;28;20886;-64
2022/01/12 10:06:15;;;;;;;16.95;10.85;;;;;;;;;;10391347;28;20195;-65
2022/01/12 10:11:17;;;;;;;17.33;11.15;;;;;;;;;;10406392;28;20199;-65
2022/01/12 10:16:26;;;;;;;16.55;10.45;;;;;;;;;;10391742;28;21042;-65
2022/01/12 10:21:27;;;;;;;22.65;10.90;;;;;;;;;;10409232;28;20215;-64
2022/01/12 10:26:29;;;;;;;22.58;12.75;;;;;;;;;;10409751;28;20191;-64
2022/01/12 10:31:30;;;;;;;17.40;11.32;;;;;;;;;;10392050;28;20254;-64
2022/01/12 10:36:39;;;;;;;20.60;11.63;;;;;;;;;;10410377;28;20215;-65
2022/01/12 10:41:56;;;;;;;20.20;12.82;;;;;;;;;;10407618;28;20593;-65
2022/01/12 10:47:17;;;;;;;22.55;13.30;;;;;;;;;;10407588;28;20227;-65
2022/01/12 10:52:19;;;;;;;26.65;13.18;;;;;;;;;;10406917;28;20251;-65
2022/01/12 10:57:26;;;;;;;19.70;12.27;;;;;;;;;;10404769;28;20242;-65
2022/01/12 11:02:28;;;;;;;20.88;13.30;;;;;;;;;;10405522;28;20207;-65
2022/01/12 11:07:32;;;;;;;21.08;12.88;;;;;;;;;;10391801;28;20213;-65
2022/01/12 11:12:35;;;;;;;20.85;13.18;;;;;;;;;;10404616;28;20202;-64
2022/01/12 11:17:38;;;;;;;23.35;14.52;;;;;;;;;;10401748;28;20219;-65
2022/01/12 11:22:45;;;;;;;23.75;13.80;;;;;;;;;;10407977;28;20226;-65
2022/01/12 11:27:51;;;;;;;25.35;15.07;;;;;;;;;;10393805;28;20203;-65
2022/01/12 11:32:59;;;;;;;26.48;15.07;;;;;;;;;;10409119;28;20325;-65
2022/01/12 11:38:01;;;;;;;24.25;14.82;;;;;;;;;;10410948;28;20257;-65
2022/01/12 11:43:03;;;;;;;21.55;13.60;;;;;;;;;;10409425;28;20191;-65
2022/01/12 11:48:04;;;;;;;23.58;14.43;;;;;;;;;;10407594;28;20243;-64
2022/01/12 11:53:05;;;;;;;29.35;15.60;;;;;;;;;;10412805;28;20195;-65
2022/01/12 11:58:16;;;;;;;25.75;15.25;;;;;;;;;;10404245;28;20809;-65
2022/01/12 12:03:19;;;;;;;25.25;15.02;;;;;;;;;;10392556;28;20226;-64
2022/01/12 12:08:23;;;;;;;21.23;13.93;;;;;;;;;;10409529;28;20195;-65
2022/01/12 12:13:24;;;;;;;23.92;15.20;;;;;;;;;;10413762;28;20572;-65
2022/01/12 12:18:25;;;;;;;27.92;16.88;;;;;;;;;;10391805;28;20200;-64
2022/01/12 12:23:29;;;;;;;27.63;15.93;;;;;;;;;;10403750;28;20890;-65
2022/01/12 12:28:31;;;;;;;26.52;16.45;;;;;;;;;;10408063;28;20191;-64
2022/01/12 12:33:34;;;;;;;31.52;16.98;;;;;;;;;;10418189;28;20313;-65
2022/01/12 12:38:35;;;;;;;28.25;17.00;;;;;;;;;;10415742;28;20620;-65
2022/01/12 12:43:37;;;;;;;37.50;18.65;;;;;;;;;;10415730;28;20265;-65
2022/01/12 12:48:40;;;;;;;31.92;18.27;;;;;;;;;;10419669;28;20665;-66
2022/01/12 12:53:52;;;;;;;36.90;19.08;;;;;;;;;;10407945;28;20222;-65
2022/01/12 12:58:54;;;;;;;27.65;16.25;;;;;;;;;;10413185;28;20200;-65
2022/01/12 13:03:57;;;;;;;30.05;18.02;;;;;;;;;;10412053;28;20214;-63
2022/01/12 13:09:09;;;;;;;35.67;19.20;;;;;;;;;;10415345;28;20719;-63
2022/01/12 13:14:11;;;;;;;38.45;20.88;;;;;;;;;;10410005;28;20221;-63
2022/01/12 13:19:33;;;;;;;38.13;20.48;;;;;;;;;;10414910;28;20202;-62
2022/01/12 13:24:34;;;;;;;45.65;20.08;;;;;;;;;;10419132;28;20218;-63
2022/01/12 13:29:45;;;;;;;41.25;21.15;;;;;;;;;;10406235;28;20201;-63
2022/01/12 13:34:56;;;;;;;39.33;19.45;;;;;;;;;;10414726;28;20810;-63
2022/01/12 13:40:09;;;;;;;42.00;18.52;;;;;;;;;;10417524;28;20316;-64
2022/01/12 13:45:14;;;;;;;37.67;17.77;;;;;;;;;;10409062;28;20191;-64
2022/01/12 13:50:17;;;;;;;33.78;17.60;;;;;;;;;;10411553;28;20703;-64
2022/01/12 13:55:18;;;;;;;33.90;16.70;;;;;;;;;;10403493;28;20242;-63
2022/01/12 14:00:20;;;;;;;36.50;16.75;;;;;;;;;;10407646;28;20201;-63
2022/01/12 14:05:28;;;;;;;35.50;17.63;;;;;;;;;;10404870;28;20266;-65
2022/01/12 14:10:30;;;;;;;36.25;18.67;;;;;;;;;;10398708;28;20190;-64
2022/01/12 14:15:33;;;;;;;36.45;19.05;;;;;;;;;;10404589;28;20202;-64
2022/01/12 14:20:36;;;;;;;35.40;18.65;;;;;;;;;;10396097;28;20184;-63
2022/01/12 14:25:42;;;;;;;34.95;17.92;;;;;;;;;;10390634;28;20215;-64
2022/01/12 14:30:45;;;;;;;33.10;17.35;;;;;;;;;;10374148;28;20789;-65
2022/01/12 14:35:47;;;;;;;32.63;16.80;;;;;;;;;;10397487;28;20215;-65
2022/01/12 14:40:48;;;;;;;29.67;15.82;;;;;;;;;;10409505;28;20231;-64
2022/01/12 14:45:49;;;;;;;42.60;17.75;;;;;;;;;;10405068;28;20195;-64
2022/01/12 14:50:51;;;;;;;34.22;16.23;;;;;;;;;;10407070;28;20231;-65
2022/01/12 14:55:53;;;;;;;33.92;16.60;;;;;;;;;;10402853;28;20657;-64
2022/01/12 15:00:55;;;;;;;33.13;15.75;;;;;;;;;;10408237;28;20211;-65
2022/01/12 15:06:02;;;;;;;30.85;15.75;;;;;;;;;;10408997;28;20196;-65
2022/01/12 15:11:04;;;;;;;35.35;17.70;;;;;;;;;;10412508;28;20333;-66
2022/01/12 15:16:05;;;;;;;31.10;16.50;;;;;;;;;;10414770;28;20215;-65
2022/01/12 15:21:06;;;;;;;38.90;16.02;;;;;;;;;;10415676;28;20199;-65
2022/01/12 15:26:07;;;;;;;32.03;16.85;;;;;;;;;;10411328;28;20199;-64
2022/01/12 15:31:08;;;;;;;38.47;17.67;;;;;;;;;;10408203;28;20223;-64
2022/01/12 15:36:09;;;;;;;45.17;20.25;;;;;;;;;;10407981;28;20225;-64
2022/01/12 15:41:10;;;;;;;42.53;19.17;;;;;;;;;;10408036;28;20583;-64
2022/01/12 15:46:11;;;;;;;37.10;17.80;;;;;;;;;;10401409;28;20267;-65
2022/01/12 15:51:13;;;;;;;39.42;18.98;;;;;;;;;;10392356;28;20659;-63
2022/01/12 15:56:16;;;;;;;37.72;17.50;;;;;;;;;;10406562;28;20208;-65
2022/01/12 16:01:17;;;;;;;32.75;16.13;;;;;;;;;;10402763;28;20203;-64
2022/01/12 16:06:18;;;;;;;35.88;16.58;;;;;;;;;;10416389;28;20330;-65
2022/01/12 16:11:19;;;;;;;32.65;15.15;;;;;;;;;;10412596;28;20202;-65
2022/01/12 16:16:23;;;;;;;29.13;15.50;;;;;;;;;;10414399;28;20252;-65
2022/01/12 16:21:24;;;;;;;31.63;14.15;;;;;;;;;;10402147;28;21129;-66
2022/01/12 16:26:25;;;;;;;36.85;17.05;;;;;;;;;;10403642;28;20278;-66
2022/01/12 16:31:28;;;;;;;39.53;17.23;;;;;;;;;;10408703;28;20723;-65
2022/01/12 16:36:29;;;;;;;36.75;17.27;;;;;;;;;;10413887;28;20436;-65
2022/01/12 16:41:30;;;;;;;38.55;18.27;;;;;;;;;;10409338;28;20671;-66
2022/01/12 16:46:31;;;;;;;38.90;18.20;;;;;;;;;;10403540;28;20591;-66
2022/01/12 16:51:32;;;;;;;36.25;18.08;;;;;;;;;;10416197;28;20227;-65
2022/01/12 16:56:33;;;;;;;39.97;16.65;;;;;;;;;;10409437;28;20210;-65
2022/01/12 17:01:34;;;;;;;35.38;17.38;;;;;;;;;;10407678;28;20211;-65
2022/01/12 17:06:35;;;;;;;32.95;16.20;;;;;;;;;;10411233;28;20202;-64
2022/01/12 17:11:36;;;;;;;28.95;13.75;;;;;;;;;;10410539;28;20202;-65
2022/01/12 17:16:50;;;;;;;36.95;14.85;;;;;;;;;;10418395;28;20215;-66
2022/01/12 17:21:53;;;;;;;34.58;16.73;;;;;;;;;;10398513;28;20195;-65
2022/01/12 17:27:05;;;;;;;29.95;16.58;;;;;;;;;;10442896;28;20863;-66
2022/01/12 17:32:06;;;;;;;36.28;17.35;;;;;;;;;;10448632;28;20305;-63
2022/01/12 17:37:09;;;;;;;28.15;16.48;;;;;;;;;;10449471;28;20218;-63
2022/01/12 17:42:11;;;;;;;30.08;16.02;;;;;;;;;;10451693;28;20194;-65
2022/01/12 17:47:14;;;;;;;30.10;16.88;;;;;;;;;;10455497;28;20222;-65
2022/01/12 17:52:15;;;;;;;28.50;15.55;;;;;;;;;;10438405;28;20645;-64
2022/01/12 17:57:16;;;;;;;27.02;14.52;;;;;;;;;;10454255;28;20206;-65
2022/01/12 18:02:17;;;;;;;28.48;15.95;;;;;;;;;;10455749;28;20640;-64
2022/01/12 18:07:18;;;;;;;32.22;15.77;;;;;;;;;;10455091;28;21299;-63
2022/01/12 18:12:19;;;;;;;30.02;16.45;;;;;;;;;;10445208;28;20213;-63
2022/01/12 18:17:20;;;;;;;30.20;15.60;;;;;;;;;;10451408;28;20237;-65
2022/01/12 18:22:22;;;;;;;27.58;15.65;;;;;;;;;;10456093;28;20746;-63
2022/01/12 18:27:23;;;;;;;29.63;16.13;;;;;;;;;;10446176;28;20284;-65
2022/01/12 18:32:24;;;;;;;33.97;16.25;;;;;;;;;;10451210;28;20264;-64
2022/01/12 18:37:27;;;;;;;29.02;15.10;;;;;;;;;;10449240;28;20212;-63
2022/01/12 18:42:28;;;;;;;28.60;14.68;;;;;;;;;;10437908;28;20186;-64
2022/01/12 18:47:29;;;;;;;27.77;15.55;;;;;;;;;;10454265;28;20233;-63
2022/01/12 18:52:30;;;;;;;25.02;13.52;;;;;;;;;;10455440;28;20197;-62
2022/01/12 18:57:32;;;;;;;26.30;14.43;;;;;;;;;;10442506;28;20297;-63
2022/01/12 19:02:33;;;;;;;29.17;13.93;;;;;;;;;;10455073;28;20220;-63
2022/01/12 19:07:34;;;;;;;25.67;14.18;;;;;;;;;;10431145;28;20194;-63
2022/01/12 19:12:35;;;;;;;24.70;14.00;;;;;;;;;;10453302;28;20198;-63
2022/01/12 19:17:36;;;;;;;26.52;13.77;;;;;;;;;;10452230;28;20342;-64
2022/01/12 19:22:38;;;;;;;24.30;14.15;;;;;;;;;;10454318;28;20194;-65
2022/01/12 19:27:39;;;;;;;29.60;13.50;;;;;;;;;;10450722;28;20383;-65
2022/01/12 19:32:41;;;;;;;26.52;14.38;;;;;;;;;;10451332;28;20224;-65
2022/01/12 19:37:43;;;;;;;23.33;13.60;;;;;;;;;;10455455;28;20916;-64
2022/01/12 19:42:44;;;;;;;32.22;15.00;;;;;;;;;;10463607;28;20198;-65
2022/01/12 19:47:45;;;;;;;29.33;15.85;;;;;;;;;;10463838;28;20236;-63
2022/01/12 19:52:58;;;;;;;26.63;14.60;;;;;;;;;;10454394;28;20248;-64
2022/01/12 19:58:07;;;;;;;30.73;15.15;;;;;;;;;;10444445;28;20224;-64
2022/01/12 20:03:14;;;;;;;31.65;16.23;;;;;;;;;;10455414;28;20259;-64
2022/01/12 20:08:35;;;;;;;31.95;16.55;;;;;;;;;;10464499;28;20910;-64
2022/01/12 20:13:37;;;;;;;50.15;24.38;;;;;;;;;;10453890;28;20198;-65
2022/01/12 20:24:07;;;;;;;41.38;19.25;;;;;;;;;;10458907;28;20757;-65
2022/01/12 20:29:08;;;;;;;39.72;19.65;;;;;;;;;;10455008;28;20191;-65
2022/01/12 20:34:09;;;;;;;32.80;19.23;;;;;;;;;;10457879;28;20222;-65
2022/01/12 20:39:11;;;;;;;33.30;19.35;;;;;;;;;;10454431;28;20197;-66
2022/01/12 20:44:12;;;;;;;45.15;20.13;;;;;;;;;;10461993;28;20230;-64
2022/01/12 20:49:14;;;;;;;43.80;20.77;;;;;;;;;;10445678;28;20681;-65
2022/01/12 20:54:16;;;;;;;36.78;19.67;;;;;;;;;;10434303;28;20210;-65
2022/01/12 20:59:19;;;;;;;41.08;20.02;;;;;;;;;;10453200;28;20603;-65
2022/01/12 21:04:20;;;;;;;40.83;19.20;;;;;;;;;;10440823;28;20226;-65
2022/01/12 21:09:21;;;;;;;39.75;19.90;;;;;;;;;;10438403;28;20222;-64
2022/01/12 21:14:22;;;;;;;44.60;20.05;;;;;;;;;;10455158;28;20744;-65
2022/01/12 21:19:23;;;;;;;42.22;19.63;;;;;;;;;;10451328;28;20191;-65
2022/01/12 21:24:24;;;;;;;37.28;19.33;;;;;;;;;;10454026;28;20279;-64
2022/01/12 21:29:25;;;;;;;41.83;19.02;;;;;;;;;;10452276;28;20232;-65
2022/01/12 21:34:35;;;;;;;42.03;20.38;;;;;;;;;;10455700;28;20225;-65
2022/01/12 21:39:37;;;;;;;40.63;20.42;;;;;;;;;;10437728;28;20186;-65
2022/01/12 21:44:39;;;;;;;38.72;19.42;;;;;;;;;;10459526;28;20191;-65
2022/01/12 21:49:40;;;;;;;38.42;19.17;;;;;;;;;;10455489;28;20238;-65
2022/01/12 21:54:41;;;;;;;42.72;19.65;;;;;;;;;;10452707;28;20217;-65
2022/01/12 21:59:43;;;;;;;39.20;19.63;;;;;;;;;;10413401;28;20198;-65
2022/01/12 22:04:44;;;;;;;37.60;20.23;;;;;;;;;;10451627;28;20299;-64
2022/01/12 22:09:45;;;;;;;35.80;19.15;;;;;;;;;;10454555;28;20194;-64
2022/01/12 22:14:46;;;;;;;34.30;17.77;;;;;;;;;;10448787;28;20276;-65
2022/01/12 22:19:47;;;;;;;35.33;17.58;;;;;;;;;;10444039;28;20996;-65
2022/01/12 22:24:48;;;;;;;36.13;17.92;;;;;;;;;;10453977;28;20275;-65
2022/01/12 22:29:50;;;;;;;39.05;18.25;;;;;;;;;;10458920;28;20255;-65
2022/01/12 22:34:51;;;;;;;34.55;19.15;;;;;;;;;;10453049;28;20210;-65
2022/01/12 22:39:52;;;;;;;38.25;17.13;;;;;;;;;;10454683;28;20217;-65
2022/01/12 22:44:53;;;;;;;36.53;18.27;;;;;;;;;;10453070;28;21195;-65
2022/01/12 22:49:54;;;;;;;40.85;20.33;;;;;;;;;;10455686;28;20221;-65
2022/01/12 22:54:55;;;;;;;43.95;19.83;;;;;;;;;;10453027;28;20221;-64
2022/01/12 22:59:56;;;;;;;40.65;19.45;;;;;;;;;;10447642;28;20198;-65
2022/01/12 23:04:58;;;;;;;43.13;20.80;;;;;;;;;;10452805;28;20302;-65
2022/01/12 23:09:59;;;;;;;41.00;21.75;;;;;;;;;;10453528;28;20197;-65
2022/01/12 23:15:00;;;;;;;44.08;21.77;;;;;;;;;;10449587;28;20216;-65
2022/01/12 23:20:01;;;;;;;48.58;21.80;;;;;;;;;;10451630;28;20194;-65
2022/01/12 23:25:02;;;;;;;44.83;21.63;;;;;;;;;;10452435;28;20288;-65
2022/01/12 23:30:04;;;;;;;44.70;21.27;;;;;;;;;;10448542;28;20578;-65
2022/01/12 23:51:10;;;;;;;41.00;20.27;;;;;;;;;;10449888;28;20880;-65
